sensor_id;sensor_type;location;lat;lon;timestamp;pressure;altitude;pressure_sealevel;temperature;humidity
46412;BME280;32113;42.012;24.870;2022-09-17T00:00:34;98011.53;;;25.11;49.31
46412;BME280;32113;42.012;24.870;2022-09-17T00:02:59;98017.34;;;25.25;48.59
46412;BME280;32113;42.012;24.870;2022-09-17T00:05:25;98021.16;;;25.01;49.31
46412;BME280;32113;42.012;24.870;2022-09-17T00:07:50;98008.13;;;24.89;49.36
46412;BME280;32113;42.012;24.870;2022-09-17T00:10:16;97995.56;;;24.83;49.66
46412;BME280;32113;42.012;24.870;2022-09-17T00:12:42;97986.91;;;24.92;49.22
46412;BME280;32113;42.012;24.870;2022-09-17T00:15:07;97980.34;;;24.77;49.30
46412;BME280;32113;42.012;24.870;2022-09-17T00:17:33;97984.22;;;24.83;49.47
46412;BME280;32113;42.012;24.870;2022-09-17T00:19:59;98003.47;;;25.03;49.03
46412;BME280;32113;42.012;24.870;2022-09-17T00:22:24;98008.09;;;25.21;48.47
46412;BME280;32113;42.012;24.870;2022-09-17T00:24:49;98003.97;;;25.28;48.13
46412;BME280;32113;42.012;24.870;2022-09-17T00:27:14;98003.56;;;25.42;48.54
46412;BME280;32113;42.012;24.870;2022-09-17T00:29:40;97996.41;;;25.54;48.52
46412;BME280;32113;42.012;24.870;2022-09-17T00:32:05;98003.34;;;25.65;47.72
46412;BME280;32113;42.012;24.870;2022-09-17T00:34:30;98001.81;;;25.63;47.12
46412;BME280;32113;42.012;24.870;2022-09-17T00:36:55;98019.75;;;25.48;47.37
46412;BME280;32113;42.012;24.870;2022-09-17T00:39:21;98021.53;;;25.37;47.59
46412;BME280;32113;42.012;24.870;2022-09-17T00:41:46;98026.13;;;24.94;49.08
46412;BME280;32113;42.012;24.870;2022-09-17T00:46:55;98018.81;;;24.98;50.13
46412;BME280;32113;42.012;24.870;2022-09-17T00:49:22;98028.78;;;25.04;49.95
46412;BME280;32113;42.012;24.870;2022-09-17T00:51:57;98034.59;;;25.17;50.21
46412;BME280;32113;42.012;24.870;2022-09-17T00:54:24;98037.13;;;25.29;49.52
46412;BME280;32113;42.012;24.870;2022-09-17T00:56:50;98028.16;;;25.31;49.74
46412;BME280;32113;42.012;24.870;2022-09-17T00:59:15;98027.19;;;25.32;49.61
46412;BME280;32113;42.012;24.870;2022-09-17T01:01:41;98022.78;;;25.33;49.73
46412;BME280;32113;42.012;24.870;2022-09-17T01:04:14;98031.19;;;25.37;49.62
46412;BME280;32113;42.012;24.870;2022-09-17T01:22:02;97986.69;;;25.35;49.09
46412;BME280;32113;42.012;24.870;2022-09-17T01:32:13;98003.72;;;25.41;46.96
46412;BME280;32113;42.012;24.870;2022-09-17T01:34:51;97986.44;;;25.38;47.31
46412;BME280;32113;42.012;24.870;2022-09-17T01:37:24;97983.78;;;25.28;46.81
46412;BME280;32113;42.012;24.870;2022-09-17T01:40:03;97985.13;;;24.93;47.36
46412;BME280;32113;42.012;24.870;2022-09-17T01:45:08;97978.69;;;24.76;47.34
46412;BME280;32113;42.012;24.870;2022-09-17T01:50:11;97980.97;;;24.90;47.98
46412;BME280;32113;42.012;24.870;2022-09-17T01:52:39;97984.56;;;24.99;47.37
46412;BME280;32113;42.012;24.870;2022-09-17T01:55:07;97990.91;;;24.97;46.64
46412;BME280;32113;42.012;24.870;2022-09-17T01:57:47;97985.97;;;25.03;46.67
46412;BME280;32113;42.012;24.870;2022-09-17T02:00:14;97992.31;;;25.01;45.99
46412;BME280;32113;42.012;24.870;2022-09-17T02:02:55;97996.75;;;24.79;46.76
46412;BME280;32113;42.012;24.870;2022-09-17T02:05:29;97986.63;;;24.64;46.91
46412;BME280;32113;42.012;24.870;2022-09-17T02:07:56;97991.63;;;24.67;46.96
46412;BME280;32113;42.012;24.870;2022-09-17T02:10:27;97994.53;;;24.74;46.79
46412;BME280;32113;42.012;24.870;2022-09-17T02:13:16;97991.88;;;24.64;46.88
46412;BME280;32113;42.012;24.870;2022-09-17T02:15:40;97982.91;;;24.57;46.81
46412;BME280;32113;42.012;24.870;2022-09-17T02:18:14;97988.50;;;24.43;47.05
46412;BME280;32113;42.012;24.870;2022-09-17T02:20:43;97989.06;;;24.46;47.44
46412;BME280;32113;42.012;24.870;2022-09-17T02:23:14;97989.22;;;24.54;47.30
46412;BME280;32113;42.012;24.870;2022-09-17T02:25:51;97991.06;;;24.64;46.95
46412;BME280;32113;42.012;24.870;2022-09-17T02:28:21;97991.78;;;24.45;48.00
46412;BME280;32113;42.012;24.870;2022-09-17T02:30:49;97979.91;;;24.40;48.41
46412;BME280;32113;42.012;24.870;2022-09-17T02:33:15;97973.81;;;24.40;48.45
46412;BME280;32113;42.012;24.870;2022-09-17T02:35:40;97959.47;;;24.34;48.07
46412;BME280;32113;42.012;24.870;2022-09-17T02:38:07;97953.94;;;24.37;47.56
46412;BME280;32113;42.012;24.870;2022-09-17T02:40:47;97962.59;;;24.07;48.17
46412;BME280;32113;42.012;24.870;2022-09-17T02:51:19;97929.91;;;24.01;47.45
46412;BME280;32113;42.012;24.870;2022-09-17T02:54:05;97941.19;;;24.01;47.16
46412;BME280;32113;42.012;24.870;2022-09-17T02:59:19;97928.63;;;24.17;47.01
46412;BME280;32113;42.012;24.870;2022-09-17T03:04:17;97914.38;;;23.88;47.42
46412;BME280;32113;42.012;24.870;2022-09-17T03:06:44;97910.41;;;23.72;47.40
46412;BME280;32113;42.012;24.870;2022-09-17T03:09:11;97918.91;;;23.65;47.55
46412;BME280;32113;42.012;24.870;2022-09-17T03:11:36;97920.19;;;23.49;48.06
46412;BME280;32113;42.012;24.870;2022-09-17T03:14:01;97924.50;;;23.39;48.21
46412;BME280;32113;42.012;24.870;2022-09-17T03:16:27;97914.06;;;23.27;48.55
46412;BME280;32113;42.012;24.870;2022-09-17T03:18:52;97917.47;;;23.06;49.12
46412;BME280;32113;42.012;24.870;2022-09-17T03:21:17;97895.91;;;23.14;48.99
46412;BME280;32113;42.012;24.870;2022-09-17T03:23:42;97902.41;;;23.20;48.69
46412;BME280;32113;42.012;24.870;2022-09-17T03:26:08;97901.72;;;23.18;48.97
46412;BME280;32113;42.012;24.870;2022-09-17T03:28:33;97910.88;;;23.12;48.77
46412;BME280;32113;42.012;24.870;2022-09-17T03:30:58;97901.66;;;22.96;49.10
46412;BME280;32113;42.012;24.870;2022-09-17T03:33:24;97902.00;;;23.03;49.17
46412;BME280;32113;42.012;24.870;2022-09-17T03:35:49;97898.19;;;23.07;49.04
46412;BME280;32113;42.012;24.870;2022-09-17T03:38:14;97881.75;;;23.17;48.68
46412;BME280;32113;42.012;24.870;2022-09-17T03:40:40;97870.50;;;23.05;48.92
46412;BME280;32113;42.012;24.870;2022-09-17T03:43:06;97860.50;;;23.10;48.56
46412;BME280;32113;42.012;24.870;2022-09-17T03:45:32;97845.34;;;22.92;49.06
46412;BME280;32113;42.012;24.870;2022-09-17T03:47:57;97838.34;;;22.93;49.09
46412;BME280;32113;42.012;24.870;2022-09-17T03:50:22;97825.50;;;22.90;49.35
46412;BME280;32113;42.012;24.870;2022-09-17T03:52:48;97832.19;;;22.82;49.55
46412;BME280;32113;42.012;24.870;2022-09-17T03:55:13;97842.66;;;22.71;49.77
46412;BME280;32113;42.012;24.870;2022-09-17T03:57:39;97846.84;;;22.62;49.91
46412;BME280;32113;42.012;24.870;2022-09-17T04:00:05;97857.53;;;22.59;50.06
46412;BME280;32113;42.012;24.870;2022-09-17T04:02:31;97861.00;;;22.60;49.98
46412;BME280;32113;42.012;24.870;2022-09-17T04:04:56;97860.97;;;22.71;49.73
46412;BME280;32113;42.012;24.870;2022-09-17T04:07:21;97870.28;;;22.96;49.32
46412;BME280;32113;42.012;24.870;2022-09-17T04:09:46;97885.00;;;23.09;48.80
46412;BME280;32113;42.012;24.870;2022-09-17T04:12:12;97875.00;;;23.03;48.75
46412;BME280;32113;42.012;24.870;2022-09-17T04:14:37;97865.06;;;22.96;48.91
46412;BME280;32113;42.012;24.870;2022-09-17T04:17:02;97857.97;;;22.87;49.30
46412;BME280;32113;42.012;24.870;2022-09-17T04:19:28;97870.34;;;22.85;49.49
46412;BME280;32113;42.012;24.870;2022-09-17T04:21:53;97864.09;;;22.97;49.28
46412;BME280;32113;42.012;24.870;2022-09-17T04:24:18;97872.09;;;23.17;48.67
46412;BME280;32113;42.012;24.870;2022-09-17T04:26:43;97858.16;;;23.28;48.28
46412;BME280;32113;42.012;24.870;2022-09-17T04:29:09;97861.13;;;23.35;48.36
46412;BME280;32113;42.012;24.870;2022-09-17T04:31:34;97872.97;;;23.51;48.33
46412;BME280;32113;42.012;24.870;2022-09-17T04:34:00;97867.00;;;23.70;48.73
46412;BME280;32113;42.012;24.870;2022-09-17T04:36:25;97869.28;;;23.84;50.37
46412;BME280;32113;42.012;24.870;2022-09-17T04:38:50;97856.19;;;23.84;51.08
46412;BME280;32113;42.012;24.870;2022-09-17T04:41:15;97837.66;;;23.76;51.27
46412;BME280;32113;42.012;24.870;2022-09-17T04:43:41;97840.16;;;23.78;50.81
46412;BME280;32113;42.012;24.870;2022-09-17T04:46:06;97831.22;;;23.80;50.90
46412;BME280;32113;42.012;24.870;2022-09-17T04:48:31;97826.88;;;23.91;50.15
46412;BME280;32113;42.012;24.870;2022-09-17T04:50:56;97835.69;;;23.89;47.93
46412;BME280;32113;42.012;24.870;2022-09-17T04:53:22;97847.44;;;23.95;48.96
46412;BME280;32113;42.012;24.870;2022-09-17T04:55:47;97861.38;;;23.96;49.68
46412;BME280;32113;42.012;24.870;2022-09-17T04:58:12;97862.34;;;24.05;50.61
46412;BME280;32113;42.012;24.870;2022-09-17T05:00:38;97869.38;;;24.04;51.18
46412;BME280;32113;42.012;24.870;2022-09-17T05:03:03;97872.28;;;24.01;51.62
46412;BME280;32113;42.012;24.870;2022-09-17T05:05:28;97873.22;;;24.00;51.87
46412;BME280;32113;42.012;24.870;2022-09-17T05:07:54;97870.34;;;24.03;52.16
46412;BME280;32113;42.012;24.870;2022-09-17T05:10:20;97861.84;;;24.11;52.21
46412;BME280;32113;42.012;24.870;2022-09-17T05:12:52;97862.28;;;24.16;52.06
46412;BME280;32113;42.012;24.870;2022-09-17T05:15:18;97860.38;;;24.18;51.98
46412;BME280;32113;42.012;24.870;2022-09-17T05:17:44;97858.31;;;24.22;51.83
46412;BME280;32113;42.012;24.870;2022-09-17T05:20:09;97875.72;;;24.33;51.96
46412;BME280;32113;42.012;24.870;2022-09-17T05:22:39;97878.53;;;24.41;51.94
46412;BME280;32113;42.012;24.870;2022-09-17T05:25:04;97873.16;;;24.43;52.14
46412;BME280;32113;42.012;24.870;2022-09-17T05:27:30;97882.53;;;24.45;52.04
46412;BME280;32113;42.012;24.870;2022-09-17T05:29:55;97883.66;;;24.52;51.97
46412;BME280;32113;42.012;24.870;2022-09-17T05:32:20;97894.00;;;24.54;52.07
46412;BME280;32113;42.012;24.870;2022-09-17T05:34:45;97895.94;;;24.52;51.96
46412;BME280;32113;42.012;24.870;2022-09-17T05:37:11;97897.19;;;24.58;52.06
46412;BME280;32113;42.012;24.870;2022-09-17T05:39:36;97894.97;;;24.53;51.92
46412;BME280;32113;42.012;24.870;2022-09-17T05:42:01;97896.75;;;24.52;52.38
46412;BME280;32113;42.012;24.870;2022-09-17T05:44:27;97891.53;;;24.52;52.52
46412;BME280;32113;42.012;24.870;2022-09-17T05:46:53;97881.75;;;24.54;52.39
46412;BME280;32113;42.012;24.870;2022-09-17T05:49:18;97892.50;;;24.51;52.41
46412;BME280;32113;42.012;24.870;2022-09-17T05:51:43;97906.41;;;24.42;52.90
46412;BME280;32113;42.012;24.870;2022-09-17T05:54:08;97920.84;;;24.36;53.16
46412;BME280;32113;42.012;24.870;2022-09-17T05:56:34;97910.34;;;24.26;53.41
46412;BME280;32113;42.012;24.870;2022-09-17T05:58:59;97912.38;;;24.23;53.81
46412;BME280;32113;42.012;24.870;2022-09-17T06:01:24;97915.00;;;24.23;53.50
46412;BME280;32113;42.012;24.870;2022-09-17T06:03:50;97914.50;;;24.29;53.69
46412;BME280;32113;42.012;24.870;2022-09-17T06:06:15;97911.16;;;24.27;53.75
46412;BME280;32113;42.012;24.870;2022-09-17T06:08:40;97937.78;;;24.32;53.54
46412;BME280;32113;42.012;24.870;2022-09-17T06:11:06;97934.66;;;24.38;53.28
46412;BME280;32113;42.012;24.870;2022-09-17T06:13:31;97937.13;;;24.40;53.55
46412;BME280;32113;42.012;24.870;2022-09-17T06:15:57;97944.88;;;24.41;53.18
46412;BME280;32113;42.012;24.870;2022-09-17T06:18:22;97944.22;;;24.49;53.04
46412;BME280;32113;42.012;24.870;2022-09-17T06:20:51;97944.13;;;24.61;52.98
46412;BME280;32113;42.012;24.870;2022-09-17T06:23:17;97947.84;;;24.68;52.74
46412;BME280;32113;42.012;24.870;2022-09-17T06:25:42;97951.91;;;24.82;52.34
46412;BME280;32113;42.012;24.870;2022-09-17T06:28:07;97957.78;;;24.96;51.50
46412;BME280;32113;42.012;24.870;2022-09-17T06:30:33;97957.22;;;25.02;50.91
46412;BME280;32113;42.012;24.870;2022-09-17T06:32:58;97954.91;;;25.09;50.63
46412;BME280;32113;42.012;24.870;2022-09-17T06:35:23;97954.09;;;25.18;50.81
46412;BME280;32113;42.012;24.870;2022-09-17T06:37:49;97955.22;;;25.25;50.95
46412;BME280;32113;42.012;24.870;2022-09-17T06:40:14;97968.06;;;25.38;50.63
46412;BME280;32113;42.012;24.870;2022-09-17T06:42:39;97970.13;;;25.54;50.90
46412;BME280;32113;42.012;24.870;2022-09-17T06:45:04;97960.63;;;25.63;50.43
46412;BME280;32113;42.012;24.870;2022-09-17T06:47:30;97980.13;;;25.70;50.29
46412;BME280;32113;42.012;24.870;2022-09-17T06:49:55;97977.59;;;25.79;50.02
46412;BME280;32113;42.012;24.870;2022-09-17T06:52:21;97974.56;;;25.83;49.68
46412;BME280;32113;42.012;24.870;2022-09-17T06:54:46;97968.59;;;25.91;49.80
46412;BME280;32113;42.012;24.870;2022-09-17T06:57:11;97977.47;;;25.90;49.62
46412;BME280;32113;42.012;24.870;2022-09-17T06:59:37;97977.47;;;25.90;49.78
46412;BME280;32113;42.012;24.870;2022-09-17T07:02:02;97974.41;;;25.95;49.83
46412;BME280;32113;42.012;24.870;2022-09-17T07:04:27;97964.16;;;26.02;49.88
46412;BME280;32113;42.012;24.870;2022-09-17T07:06:53;97981.03;;;26.09;49.15
46412;BME280;32113;42.012;24.870;2022-09-17T07:09:18;97989.31;;;26.24;48.96
46412;BME280;32113;42.012;24.870;2022-09-17T07:11:43;97974.09;;;26.28;49.13
46412;BME280;32113;42.012;24.870;2022-09-17T07:14:09;97957.47;;;26.37;48.65
46412;BME280;32113;42.012;24.870;2022-09-17T07:16:34;97958.09;;;26.49;48.56
46412;BME280;32113;42.012;24.870;2022-09-17T07:19:03;97963.88;;;26.62;47.51
46412;BME280;32113;42.012;24.870;2022-09-17T07:21:29;97959.66;;;26.70;48.55
46412;BME280;32113;42.012;24.870;2022-09-17T07:23:54;97956.31;;;26.77;48.13
46412;BME280;32113;42.012;24.870;2022-09-17T07:26:19;97952.78;;;26.87;48.43
46412;BME280;32113;42.012;24.870;2022-09-17T07:28:44;97958.31;;;26.94;47.54
46412;BME280;32113;42.012;24.870;2022-09-17T07:31:12;97949.59;;;26.93;47.54
46412;BME280;32113;42.012;24.870;2022-09-17T07:33:38;97957.47;;;26.93;46.89
46412;BME280;32113;42.012;24.870;2022-09-17T07:36:04;97946.41;;;26.89;47.17
46412;BME280;32113;42.012;24.870;2022-09-17T07:38:30;97939.47;;;26.98;47.35
46412;BME280;32113;42.012;24.870;2022-09-17T07:43:22;97932.47;;;27.07;46.07
46412;BME280;32113;42.012;24.870;2022-09-17T07:45:48;97933.31;;;27.08;45.42
46412;BME280;32113;42.012;24.870;2022-09-17T07:48:13;97930.53;;;27.09;46.05
46412;BME280;32113;42.012;24.870;2022-09-17T07:50:38;97941.59;;;27.13;45.65
46412;BME280;32113;42.012;24.870;2022-09-17T07:53:03;97939.09;;;27.11;45.81
46412;BME280;32113;42.012;24.870;2022-09-17T07:55:29;97920.25;;;27.16;45.51
46412;BME280;32113;42.012;24.870;2022-09-17T07:57:54;97912.72;;;27.21;45.29
46412;BME280;32113;42.012;24.870;2022-09-17T08:00:19;97919.13;;;27.19;45.44
46412;BME280;32113;42.012;24.870;2022-09-17T08:02:45;97921.00;;;27.26;44.52
46412;BME280;32113;42.012;24.870;2022-09-17T08:05:16;97918.44;;;27.35;44.16
46412;BME280;32113;42.012;24.870;2022-09-17T08:07:41;97933.75;;;27.39;44.44
46412;BME280;32113;42.012;24.870;2022-09-17T08:10:07;97929.84;;;27.44;43.74
46412;BME280;32113;42.012;24.870;2022-09-17T08:12:32;97938.97;;;27.49;43.76
46412;BME280;32113;42.012;24.870;2022-09-17T08:14:57;97937.13;;;27.50;43.49
46412;BME280;32113;42.012;24.870;2022-09-17T08:17:23;97928.66;;;27.38;43.75
46412;BME280;32113;42.012;24.870;2022-09-17T08:19:48;97929.47;;;27.38;43.12
46412;BME280;32113;42.012;24.870;2022-09-17T08:22:13;97921.66;;;27.47;43.38
46412;BME280;32113;42.012;24.870;2022-09-17T08:24:38;97913.50;;;27.58;42.95
46412;BME280;32113;42.012;24.870;2022-09-17T08:27:04;97913.13;;;27.71;42.34
46412;BME280;32113;42.012;24.870;2022-09-17T08:29:29;97907.25;;;27.77;42.55
46412;BME280;32113;42.012;24.870;2022-09-17T08:31:54;97919.38;;;27.97;42.42
46412;BME280;32113;42.012;24.870;2022-09-17T08:34:20;97920.28;;;28.05;41.90
46412;BME280;32113;42.012;24.870;2022-09-17T08:36:45;97912.75;;;28.19;42.47
46412;BME280;32113;42.012;24.870;2022-09-17T08:39:10;97902.97;;;28.38;41.92
46412;BME280;32113;42.012;24.870;2022-09-17T08:46:49;97910.41;;;28.85;41.58
46412;BME280;32113;42.012;24.870;2022-09-17T08:51:46;97899.25;;;29.42;40.63
46412;BME280;32113;42.012;24.870;2022-09-17T08:56:47;97890.59;;;29.98;40.26
46412;BME280;32113;42.012;24.870;2022-09-17T08:59:19;97887.94;;;30.23;40.53
46412;BME280;32113;42.012;24.870;2022-09-17T09:06:54;97897.38;;;30.17;38.50
46412;BME280;32113;42.012;24.870;2022-09-17T09:09:23;97898.34;;;30.08;39.24
46412;BME280;32113;42.012;24.870;2022-09-17T09:11:59;97893.38;;;30.21;39.88
46412;BME280;32113;42.012;24.870;2022-09-17T09:14:30;97891.94;;;30.50;39.04
46412;BME280;32113;42.012;24.870;2022-09-17T09:16:57;97885.72;;;30.75;39.89
46412;BME280;32113;42.012;24.870;2022-09-17T09:19:24;97874.81;;;31.01;38.87
46412;BME280;32113;42.012;24.870;2022-09-17T09:22:01;97877.81;;;31.22;36.38
46412;BME280;32113;42.012;24.870;2022-09-17T09:24:40;97869.44;;;31.33;36.83
46412;BME280;32113;42.012;24.870;2022-09-17T09:27:17;97860.63;;;31.56;37.63
46412;BME280;32113;42.012;24.870;2022-09-17T09:34:49;97825.38;;;32.01;35.13
46412;BME280;32113;42.012;24.870;2022-09-17T09:37:23;97824.34;;;32.17;35.09
46412;BME280;32113;42.012;24.870;2022-09-17T09:39:49;97839.16;;;32.26;34.13
46412;BME280;32113;42.012;24.870;2022-09-17T09:42:50;97837.59;;;32.32;34.55
46412;BME280;32113;42.012;24.870;2022-09-17T09:45:12;97816.25;;;32.40;33.68
46412;BME280;32113;42.012;24.870;2022-09-17T09:47:55;97815.16;;;32.49;34.20
46412;BME280;32113;42.012;24.870;2022-09-17T09:53:09;97801.75;;;32.21;33.16
46412;BME280;32113;42.012;24.870;2022-09-17T09:58:21;97814.75;;;32.53;33.34
46412;BME280;32113;42.012;24.870;2022-09-17T10:00:49;97809.75;;;32.58;34.21
46412;BME280;32113;42.012;24.870;2022-09-17T10:05:50;97795.38;;;32.74;33.54
46412;BME280;32113;42.012;24.870;2022-09-17T10:08:16;97793.06;;;32.86;33.56
46412;BME280;32113;42.012;24.870;2022-09-17T10:13:19;97795.44;;;33.02;32.52
46412;BME280;32113;42.012;24.870;2022-09-17T10:15:45;97774.31;;;33.16;32.08
46412;BME280;32113;42.012;24.870;2022-09-17T10:18:11;97764.34;;;33.25;31.26
46412;BME280;32113;42.012;24.870;2022-09-17T10:23:19;97750.03;;;33.19;31.13
46412;BME280;32113;42.012;24.870;2022-09-17T10:25:45;97756.06;;;32.84;32.06
46412;BME280;32113;42.012;24.870;2022-09-17T10:28:23;97753.59;;;33.05;32.17
46412;BME280;32113;42.012;24.870;2022-09-17T10:30:57;97743.28;;;33.23;31.88
46412;BME280;32113;42.012;24.870;2022-09-17T10:33:30;97745.56;;;33.26;30.81
46412;BME280;32113;42.012;24.870;2022-09-17T10:36:00;97750.06;;;33.33;31.36
46412;BME280;32113;42.012;24.870;2022-09-17T10:38:46;97762.69;;;33.52;31.02
46412;BME280;32113;42.012;24.870;2022-09-17T10:43:37;97761.16;;;33.72;31.48
46412;BME280;32113;42.012;24.870;2022-09-17T10:46:02;97770.59;;;33.81;30.84
46412;BME280;32113;42.012;24.870;2022-09-17T10:48:32;97790.44;;;33.78;30.96
46412;BME280;32113;42.012;24.870;2022-09-17T10:50:58;97800.00;;;33.66;29.98
46412;BME280;32113;42.012;24.870;2022-09-17T10:53:25;97805.34;;;33.44;31.29
46412;BME280;32113;42.012;24.870;2022-09-17T11:13:32;97837.13;;;31.53;34.22
46412;BME280;32113;42.012;24.870;2022-09-17T11:18:49;97836.78;;;31.56;33.95
46412;BME280;32113;42.012;24.870;2022-09-17T11:28:56;97954.56;;;30.75;37.20
46412;BME280;32113;42.012;24.870;2022-09-17T11:34:01;97962.28;;;30.36;39.33
46412;BME280;32113;42.012;24.870;2022-09-17T11:36:30;98009.94;;;29.86;41.23
46412;BME280;32113;42.012;24.870;2022-09-17T11:38:58;98048.94;;;28.81;47.26
46412;BME280;32113;42.012;24.870;2022-09-17T11:41:30;98041.91;;;27.92;51.66
46412;BME280;32113;42.012;24.870;2022-09-17T11:46:29;98003.50;;;27.35;55.27
46412;BME280;32113;42.012;24.870;2022-09-17T11:51:26;97997.03;;;27.29;55.85
46412;BME280;32113;42.012;24.870;2022-09-17T11:54:02;97988.06;;;27.40;54.79
46412;BME280;32113;42.012;24.870;2022-09-17T12:01:49;97969.31;;;27.98;52.49
46412;BME280;32113;42.012;24.870;2022-09-17T12:09:44;97934.28;;;28.76;49.04
46412;BME280;32113;42.012;24.870;2022-09-17T12:12:13;97925.06;;;28.80;48.30
46412;BME280;32113;42.012;24.870;2022-09-17T12:14:48;97903.19;;;28.96;47.83
46412;BME280;32113;42.012;24.870;2022-09-17T12:17:16;97891.50;;;29.23;47.80
46412;BME280;32113;42.012;24.870;2022-09-17T12:19:45;97853.53;;;29.41;46.01
46412;BME280;32113;42.012;24.870;2022-09-17T12:22:16;97830.25;;;29.53;45.79
46412;BME280;32113;42.012;24.870;2022-09-17T12:24:45;97817.00;;;29.70;46.21
46412;BME280;32113;42.012;24.870;2022-09-17T13:00:47;97808.78;;;30.13;44.50
46412;BME280;32113;42.012;24.870;2022-09-17T13:03:22;97784.00;;;30.14;44.42
46412;BME280;32113;42.012;24.870;2022-09-17T13:13:42;97762.94;;;30.29;43.51
46412;BME280;32113;42.012;24.870;2022-09-17T13:23:41;97749.22;;;30.49;42.99
46412;BME280;32113;42.012;24.870;2022-09-17T13:26:08;97735.00;;;30.26;43.39
46412;BME280;32113;42.012;24.870;2022-09-17T13:28:35;97738.59;;;30.34;44.08
46412;BME280;32113;42.012;24.870;2022-09-17T13:31:01;97740.84;;;30.45;43.77
46412;BME280;32113;42.012;24.870;2022-09-17T13:33:47;97740.13;;;30.51;43.24
46412;BME280;32113;42.012;24.870;2022-09-17T13:38:59;97711.13;;;30.58;42.85
46412;BME280;32113;42.012;24.870;2022-09-17T13:41:25;97707.97;;;30.63;42.27
46412;BME280;32113;42.012;24.870;2022-09-17T13:43:50;97713.09;;;30.64;42.99
46412;BME280;32113;42.012;24.870;2022-09-17T13:46:20;97705.78;;;30.66;42.17
46412;BME280;32113;42.012;24.870;2022-09-17T13:48:47;97704.44;;;30.71;42.56
46412;BME280;32113;42.012;24.870;2022-09-17T13:51:41;97706.19;;;30.78;42.83
46412;BME280;32113;42.012;24.870;2022-09-17T13:54:07;97701.53;;;30.80;42.24
46412;BME280;32113;42.012;24.870;2022-09-17T13:56:41;97696.25;;;30.80;42.74
46412;BME280;32113;42.012;24.870;2022-09-17T13:59:08;97711.03;;;30.90;42.06
46412;BME280;32113;42.012;24.870;2022-09-17T14:04:32;97708.72;;;30.95;42.58
46412;BME280;32113;42.012;24.870;2022-09-17T14:06:57;97703.88;;;30.99;41.92
46412;BME280;32113;42.012;24.870;2022-09-17T14:09:30;97694.53;;;30.88;41.91
46412;BME280;32113;42.012;24.870;2022-09-17T14:11:56;97691.72;;;30.89;42.01
46412;BME280;32113;42.012;24.870;2022-09-17T14:16:52;97688.31;;;30.80;42.99
46412;BME280;32113;42.012;24.870;2022-09-17T14:19:23;97682.84;;;30.82;42.76
46412;BME280;32113;42.012;24.870;2022-09-17T14:21:57;97678.56;;;30.81;42.53
46412;BME280;32113;42.012;24.870;2022-09-17T14:27:14;97654.03;;;30.64;43.25
46412;BME280;32113;42.012;24.870;2022-09-17T14:32:15;97673.66;;;30.70;43.26
46412;BME280;32113;42.012;24.870;2022-09-17T14:34:44;97670.16;;;30.77;42.58
46412;BME280;32113;42.012;24.870;2022-09-17T14:37:11;97673.66;;;30.70;42.62
46412;BME280;32113;42.012;24.870;2022-09-17T14:39:37;97667.44;;;30.62;42.58
46412;BME280;32113;42.012;24.870;2022-09-17T14:42:04;97678.47;;;30.51;42.66
46412;BME280;32113;42.012;24.870;2022-09-17T14:44:31;97669.56;;;30.44;41.89
46412;BME280;32113;42.012;24.870;2022-09-17T14:47:05;97671.19;;;30.29;41.88
46412;BME280;32113;42.012;24.870;2022-09-17T14:49:36;97684.97;;;30.16;42.99
46412;BME280;32113;42.012;24.870;2022-09-17T14:52:18;97676.97;;;30.01;43.31
46412;BME280;32113;42.012;24.870;2022-09-17T14:54:43;97656.16;;;29.98;44.29
46412;BME280;32113;42.012;24.870;2022-09-17T15:00:11;97656.88;;;29.92;44.40
46412;BME280;32113;42.012;24.870;2022-09-17T15:05:20;97656.69;;;29.62;45.07
46412;BME280;32113;42.012;24.870;2022-09-17T15:07:46;97662.66;;;29.47;45.65
46412;BME280;32113;42.012;24.870;2022-09-17T15:10:15;97662.03;;;29.37;45.40
46412;BME280;32113;42.012;24.870;2022-09-17T15:12:42;97669.00;;;29.30;45.13
46412;BME280;32113;42.012;24.870;2022-09-17T15:15:14;97679.59;;;29.21;44.63
46412;BME280;32113;42.012;24.870;2022-09-17T15:17:40;97674.66;;;29.10;45.30
46412;BME280;32113;42.012;24.870;2022-09-17T15:20:06;97672.19;;;29.08;44.85
46412;BME280;32113;42.012;24.870;2022-09-17T15:22:38;97686.75;;;29.04;44.96
46412;BME280;32113;42.012;24.870;2022-09-17T15:25:14;97685.75;;;28.97;44.82
46412;BME280;32113;42.012;24.870;2022-09-17T15:27:44;97680.78;;;28.94;44.75
46412;BME280;32113;42.012;24.870;2022-09-17T15:30:12;97699.91;;;28.79;45.41
46412;BME280;32113;42.012;24.870;2022-09-17T15:32:38;97692.34;;;28.76;45.67
46412;BME280;32113;42.012;24.870;2022-09-17T15:35:13;97665.78;;;28.78;45.29
46412;BME280;32113;42.012;24.870;2022-09-17T15:37:45;97667.94;;;28.74;45.60
46412;BME280;32113;42.012;24.870;2022-09-17T15:40:11;97694.63;;;28.71;45.22
46412;BME280;32113;42.012;24.870;2022-09-17T15:42:37;97719.53;;;28.68;45.50
46412;BME280;32113;42.012;24.870;2022-09-17T15:45:15;97698.63;;;28.67;45.41
46412;BME280;32113;42.012;24.870;2022-09-17T15:47:52;97691.50;;;28.67;45.63
46412;BME280;32113;42.012;24.870;2022-09-17T15:52:43;97726.47;;;28.53;47.10
46412;BME280;32113;42.012;24.870;2022-09-17T15:57:56;97799.47;;;28.36;48.59
46412;BME280;32113;42.012;24.870;2022-09-17T16:00:22;97788.91;;;28.27;49.34
46412;BME280;32113;42.012;24.870;2022-09-17T16:02:48;97790.31;;;28.22;49.43
46412;BME280;32113;42.012;24.870;2022-09-17T16:07:41;97895.47;;;27.90;50.57
46412;BME280;32113;42.012;24.870;2022-09-17T16:10:07;98013.94;;;27.73;52.41
46412;BME280;32113;42.012;24.870;2022-09-17T16:12:33;98176.44;;;27.07;57.88
46412;BME280;32113;42.012;24.870;2022-09-17T16:14:58;98167.31;;;25.41;69.13
46412;BME280;32113;42.012;24.870;2022-09-17T16:19:52;97913.38;;;22.35;77.73